createdAt,value
2022-10-09T00:00:09.926Z,13.81
2022-10-09T00:02:40.180Z,13.83
2022-10-09T00:05:09.008Z,13.84
2022-10-09T00:07:37.012Z,13.82
2022-10-09T00:10:05.997Z,13.77
2022-10-09T00:12:35.419Z,13.76
2022-10-09T00:15:03.581Z,13.82
2022-10-09T00:17:31.441Z,13.75
2022-10-09T00:19:59.392Z,13.79
2022-10-09T00:22:27.258Z,13.77
2022-10-09T00:24:55.278Z,13.70
2022-10-09T00:27:23.871Z,13.74
2022-10-09T00:29:53.264Z,13.70
2022-10-09T00:32:21.317Z,13.76
2022-10-09T00:34:49.203Z,13.82
2022-10-09T00:37:17.167Z,13.82
2022-10-09T00:39:45.323Z,13.88
2022-10-09T00:42:14.215Z,13.89
2022-10-09T00:44:54.304Z,13.91
2022-10-09T00:47:28.870Z,13.85
2022-10-09T00:50:04.092Z,13.84
2022-10-09T00:52:33.865Z,13.82
2022-10-09T00:55:03.737Z,13.76
2022-10-09T00:57:33.724Z,13.81
2022-10-09T01:00:06.626Z,13.82
2022-10-09T01:02:35.021Z,13.74
2022-10-09T01:05:03.089Z,13.77
2022-10-09T01:07:40.067Z,13.71
2022-10-09T01:10:23.134Z,13.75
2022-10-09T01:13:00.741Z,13.68
2022-10-09T01:15:34.827Z,13.57
2022-10-09T01:18:07.985Z,13.59
2022-10-09T01:20:45.930Z,13.45
2022-10-09T01:23:38.793Z,13.49
2022-10-09T01:26:16.392Z,13.45
2022-10-09T01:28:51.197Z,13.45
2022-10-09T01:31:21.447Z,13.35
2022-10-09T01:33:50.635Z,13.39
2022-10-09T01:36:20.440Z,13.33
2022-10-09T01:38:49.536Z,13.39
2022-10-09T01:41:18.187Z,13.43
2022-10-09T01:43:47.416Z,13.39
2022-10-09T01:46:20.796Z,13.41
2022-10-09T01:48:52.127Z,13.57
2022-10-09T01:51:26.936Z,13.42
2022-10-09T01:53:58.717Z,13.32
2022-10-09T01:56:32.146Z,13.36
2022-10-09T01:59:06.213Z,13.37
2022-10-09T02:01:37.586Z,13.43
2022-10-09T02:04:09.457Z,13.44
2022-10-09T02:06:40.545Z,13.42
2022-10-09T02:09:12.973Z,13.47
2022-10-09T02:11:43.155Z,13.45
2022-10-09T02:14:13.144Z,13.43
2022-10-09T02:16:43.376Z,13.45
2022-10-09T02:19:18.246Z,13.47
2022-10-09T02:21:54.488Z,13.44
2022-10-09T02:24:24.031Z,13.47
2022-10-09T02:26:54.434Z,13.32
2022-10-09T02:29:23.826Z,13.31
2022-10-09T02:31:52.283Z,13.30
2022-10-09T02:34:21.292Z,13.21
2022-10-09T02:36:50.695Z,13.26
2022-10-09T02:39:19.052Z,13.25
2022-10-09T02:41:47.707Z,13.25
2022-10-09T02:44:15.945Z,13.27
2022-10-09T02:46:45.269Z,13.07
2022-10-09T02:49:13.374Z,13.22
2022-10-09T02:51:41.504Z,13.26
2022-10-09T02:54:10.557Z,13.24
2022-10-09T02:56:39.310Z,13.21
2022-10-09T02:59:07.638Z,13.22
2022-10-09T03:01:36.099Z,13.15
2022-10-09T03:04:06.175Z,13.09
2022-10-09T03:06:34.177Z,13.04
2022-10-09T03:09:02.422Z,13.08
2022-10-09T03:11:30.429Z,13.05
2022-10-09T03:13:58.446Z,13.15
2022-10-09T03:16:27.926Z,13.12
2022-10-09T03:18:56.331Z,13.20
2022-10-09T03:21:27.711Z,13.15
2022-10-09T03:23:56.437Z,13.17
2022-10-09T03:26:26.168Z,13.18
2022-10-09T03:28:55.789Z,13.20
2022-10-09T03:31:50.477Z,13.21
2022-10-09T03:34:15.317Z,13.20
2022-10-09T03:36:44.757Z,13.17
2022-10-09T03:39:12.956Z,13.04
2022-10-09T03:41:40.829Z,13.06
2022-10-09T03:44:08.918Z,13.09
2022-10-09T03:46:36.874Z,13.08
2022-10-09T03:49:04.875Z,13.04
2022-10-09T03:51:33.062Z,13.11
2022-10-09T03:54:02.538Z,13.09
2022-10-09T03:56:30.426Z,13.01
2022-10-09T03:58:58.469Z,13.02
2022-10-09T04:01:26.410Z,12.86
2022-10-09T04:03:54.394Z,12.86
2022-10-09T04:06:22.250Z,12.87
2022-10-09T04:08:50.201Z,12.83
2022-10-09T04:11:19.499Z,12.82
2022-10-09T04:13:47.404Z,12.82
2022-10-09T04:16:15.425Z,12.75
2022-10-09T04:18:44.923Z,12.77
2022-10-09T04:21:13.484Z,12.76
2022-10-09T04:23:41.531Z,12.84
2022-10-09T04:26:12.702Z,12.85
2022-10-09T04:28:42.086Z,12.70
2022-10-09T04:31:10.567Z,12.80
2022-10-09T04:33:38.690Z,12.73
2022-10-09T04:36:06.956Z,12.81
2022-10-09T04:38:35.015Z,12.81
2022-10-09T04:41:05.433Z,12.83
2022-10-09T04:43:34.675Z,12.78
2022-10-09T04:46:06.962Z,12.78
2022-10-09T04:48:39.215Z,12.78
2022-10-09T04:51:07.905Z,12.75
2022-10-09T04:53:36.576Z,12.76
2022-10-09T04:56:05.288Z,12.72
2022-10-09T04:58:35.310Z,12.74
2022-10-09T05:01:08.704Z,12.80
2022-10-09T05:03:37.580Z,12.81
2022-10-09T05:06:08.279Z,12.81
2022-10-09T05:08:37.267Z,12.82
2022-10-09T05:11:11.705Z,12.87
2022-10-09T05:13:45.448Z,12.89
2022-10-09T05:16:19.224Z,12.87
2022-10-09T05:18:50.927Z,12.85
2022-10-09T05:21:21.115Z,12.84
2022-10-09T05:23:50.893Z,12.79
2022-10-09T05:26:21.247Z,12.79
2022-10-09T05:28:50.906Z,12.75
2022-10-09T05:31:24.014Z,12.63
2022-10-09T05:33:53.944Z,12.63
2022-10-09T05:36:24.700Z,12.37
2022-10-09T05:38:53.532Z,12.39
2022-10-09T05:41:31.800Z,12.44
2022-10-09T05:44:04.924Z,12.46
2022-10-09T05:46:37.119Z,12.48
2022-10-09T05:49:29.109Z,12.54
2022-10-09T05:52:10.953Z,12.51
2022-10-09T05:54:52.645Z,12.55
2022-10-09T05:57:35.398Z,12.57
2022-10-09T06:00:21.952Z,12.58
2022-10-09T06:06:03.777Z,12.49
2022-10-09T06:08:54.315Z,12.55
2022-10-09T06:11:38.306Z,12.58
2022-10-09T06:14:16.374Z,12.63
2022-10-09T06:16:52.668Z,12.66
2022-10-09T06:19:34.833Z,12.67
2022-10-09T06:22:09.512Z,12.70
2022-10-09T06:24:40.420Z,12.71
2022-10-09T06:27:11.048Z,12.77
2022-10-09T06:29:39.413Z,12.82
2022-10-09T06:32:07.360Z,12.77
2022-10-09T06:34:35.300Z,12.81
2022-10-09T06:37:03.219Z,12.82
2022-10-09T06:39:32.858Z,12.84
2022-10-09T06:42:00.884Z,12.65
2022-10-09T06:44:41.782Z,12.82
2022-10-09T06:47:10.090Z,12.82
2022-10-09T06:49:38.140Z,12.84
2022-10-09T06:52:06.067Z,12.87
2022-10-09T06:54:35.713Z,12.95
2022-10-09T06:57:03.877Z,12.99
2022-10-09T06:59:32.224Z,13.03
2022-10-09T07:02:00.551Z,13.02
2022-10-09T07:04:28.769Z,12.99
2022-10-09T07:06:57.090Z,13.02
2022-10-09T07:09:25.336Z,13.04
2022-10-09T07:11:54.785Z,13.06
2022-10-09T07:14:22.731Z,13.00
2022-10-09T07:16:52.638Z,13.02
2022-10-09T07:19:21.768Z,13.03
2022-10-09T07:21:51.093Z,13.11
2022-10-09T07:24:20.764Z,13.18
2022-10-09T07:26:49.627Z,13.25
2022-10-09T07:29:20.083Z,13.31
2022-10-09T07:31:50.012Z,13.27
2022-10-09T07:34:18.115Z,13.34
2022-10-09T07:36:46.104Z,13.30
2022-10-09T07:39:14.254Z,13.39
2022-10-09T07:41:43.500Z,13.34
2022-10-09T07:44:12.176Z,13.31
2022-10-09T07:46:42.198Z,13.26
2022-10-09T07:49:10.697Z,13.14
2022-10-09T07:51:38.707Z,13.03
2022-10-09T07:54:06.853Z,13.08
2022-10-09T07:56:37.915Z,13.24
2022-10-09T07:59:08.341Z,13.28
2022-10-09T08:01:37.359Z,13.33
2022-10-09T08:04:07.258Z,13.15
2022-10-09T08:06:35.913Z,13.29
2022-10-09T08:09:06.657Z,13.30
2022-10-09T08:11:35.272Z,13.32
2022-10-09T08:14:03.495Z,13.28
2022-10-09T08:16:33.009Z,13.40
2022-10-09T08:19:02.170Z,13.35
2022-10-09T08:21:32.976Z,13.35
2022-10-09T08:24:01.618Z,13.40
2022-10-09T08:26:31.922Z,13.38
2022-10-09T08:29:02.044Z,13.42
2022-10-09T08:31:31.796Z,13.50
2022-10-09T08:34:02.736Z,13.42
2022-10-09T08:36:32.829Z,13.48
2022-10-09T08:39:01.021Z,13.57
2022-10-09T08:41:41.987Z,13.75
2022-10-09T08:44:18.157Z,13.68
2022-10-09T08:46:57.331Z,13.80
2022-10-09T08:49:31.137Z,13.88
2022-10-09T08:52:12.786Z,13.92
2022-10-09T08:54:41.989Z,14.02
2022-10-09T08:57:14.888Z,13.86
2022-10-09T08:59:43.512Z,13.80
2022-10-09T09:02:31.295Z,13.77
2022-10-09T09:05:20.875Z,13.80
2022-10-09T09:07:57.296Z,13.77
2022-10-09T09:10:38.344Z,13.73
2022-10-09T09:13:18.424Z,13.67
2022-10-09T09:15:51.772Z,13.74
2022-10-09T09:18:40.708Z,13.77
2022-10-09T09:21:18.463Z,13.73
2022-10-09T09:23:48.876Z,13.94
2022-10-09T09:26:20.285Z,13.89
2022-10-09T09:28:52.562Z,14.01
2022-10-09T09:31:25.024Z,13.99
2022-10-09T09:33:59.461Z,14.04
2022-10-09T09:36:33.031Z,13.84
2022-10-09T09:41:50.586Z,14.05
2022-10-09T09:44:18.748Z,14.02
2022-10-09T09:46:48.917Z,14.00
2022-10-09T09:49:18.310Z,14.08
2022-10-09T09:51:46.988Z,14.17
2022-10-09T09:54:20.282Z,14.15
2022-10-09T09:59:39.961Z,14.30
2022-10-09T10:02:15.498Z,14.33
2022-10-09T10:04:52.164Z,14.36
2022-10-09T10:07:30.767Z,14.31
2022-10-09T10:10:09.081Z,14.31
2022-10-09T10:12:41.724Z,14.43
2022-10-09T10:15:20.053Z,14.56
2022-10-09T10:17:49.856Z,14.67
2022-10-09T10:20:19.062Z,14.47
2022-10-09T10:22:53.222Z,14.54
2022-10-09T10:25:26.904Z,14.56
2022-10-09T10:28:01.741Z,14.63
2022-10-09T10:30:30.239Z,14.61
2022-10-09T10:33:02.982Z,14.56
2022-10-09T10:35:35.831Z,14.77
2022-10-09T10:38:06.888Z,14.84
2022-10-09T10:40:39.062Z,14.80
2022-10-09T10:43:16.865Z,15.04
2022-10-09T10:45:59.404Z,15.05
2022-10-09T10:48:30.556Z,15.01
2022-10-09T10:51:09.560Z,15.11
2022-10-09T10:53:50.364Z,15.10
2022-10-09T10:56:27.487Z,15.35
2022-10-09T10:59:05.850Z,15.33
2022-10-09T11:01:45.438Z,15.05
2022-10-09T11:04:35.696Z,15.26
2022-10-09T11:07:16.927Z,15.11
2022-10-09T11:09:53.301Z,15.16
2022-10-09T11:12:47.403Z,15.32
2022-10-09T11:15:24.572Z,15.35
2022-10-09T11:17:59.503Z,15.45
2022-10-09T11:20:59.259Z,15.52
2022-10-09T11:23:37.122Z,15.67
2022-10-09T11:26:12.805Z,15.78
2022-10-09T11:28:46.998Z,15.71
2022-10-09T11:31:18.571Z,15.73
2022-10-09T11:33:49.951Z,15.88
2022-10-09T11:36:22.401Z,15.96
2022-10-09T11:38:54.286Z,16.12
2022-10-09T11:41:22.621Z,16.12
2022-10-09T11:44:17.917Z,16.18
2022-10-09T11:46:51.544Z,16.31
2022-10-09T11:49:26.890Z,16.35
2022-10-09T11:52:01.201Z,16.48
2022-10-09T11:54:30.257Z,16.71
2022-10-09T11:57:00.369Z,16.65
2022-10-09T11:59:31.352Z,16.60
2022-10-09T12:02:01.289Z,16.55
2022-10-09T12:04:50.470Z,16.58
2022-10-09T12:07:33.134Z,16.70
2022-10-09T12:10:06.319Z,16.75
2022-10-09T12:12:35.252Z,16.82
2022-10-09T12:15:24.421Z,16.93
2022-10-09T12:17:52.361Z,17.14
2022-10-09T12:20:24.455Z,17.18
2022-10-09T12:23:24.653Z,17.35
2022-10-09T12:25:46.898Z,17.66
2022-10-09T12:28:26.922Z,17.78
2022-10-09T12:31:00.195Z,17.61
2022-10-09T12:33:31.943Z,17.51
2022-10-09T12:36:03.623Z,17.74
2022-10-09T12:38:33.764Z,17.82
2022-10-09T12:41:05.764Z,17.90
2022-10-09T12:43:36.277Z,17.90
2022-10-09T12:46:05.935Z,17.68
2022-10-09T12:48:40.118Z,17.63
2022-10-09T12:51:16.619Z,17.90
2022-10-09T12:53:49.545Z,17.98
2022-10-09T12:56:22.790Z,17.99
2022-10-09T12:58:51.875Z,18.05
2022-10-09T13:01:21.822Z,18.12
2022-10-09T13:03:58.707Z,18.27
2022-10-09T13:06:28.843Z,18.47
2022-10-09T13:08:59.209Z,18.49
2022-10-09T13:11:33.272Z,18.41
2022-10-09T13:14:01.961Z,18.59
2022-10-09T13:16:41.906Z,18.75
2022-10-09T13:19:24.411Z,18.92
2022-10-09T13:22:17.180Z,18.77
2022-10-09T13:24:45.521Z,18.93
2022-10-09T13:27:15.005Z,19.06
2022-10-09T13:29:43.669Z,18.98
2022-10-09T13:32:15.525Z,18.98
2022-10-09T13:34:44.422Z,18.94
2022-10-09T13:37:14.189Z,18.93
2022-10-09T13:39:43.107Z,18.88
2022-10-09T13:42:12.932Z,18.97
2022-10-09T13:44:41.267Z,18.93
2022-10-09T13:47:09.315Z,18.88
2022-10-09T13:49:38.849Z,18.89
2022-10-09T13:52:07.365Z,19.02
2022-10-09T13:54:35.550Z,18.91
2022-10-09T13:57:04.000Z,18.79
2022-10-09T13:59:32.563Z,18.94
2022-10-09T14:02:01.610Z,18.93
2022-10-09T14:04:30.421Z,18.89
2022-10-09T14:06:59.836Z,18.67
2022-10-09T14:09:28.085Z,18.90
2022-10-09T14:11:56.348Z,19.35
2022-10-09T14:14:24.993Z,19.48
2022-10-09T14:16:53.406Z,19.63
2022-10-09T14:19:26.540Z,19.64
2022-10-09T14:21:55.639Z,19.69
2022-10-09T14:24:26.617Z,19.40
2022-10-09T14:26:54.839Z,19.13
2022-10-09T14:29:23.029Z,19.09
2022-10-09T14:31:51.950Z,19.12
2022-10-09T14:34:19.933Z,19.25
2022-10-09T14:36:48.865Z,19.29
2022-10-09T14:39:17.411Z,19.51
2022-10-09T14:41:46.952Z,19.64
2022-10-09T14:44:15.489Z,19.56
2022-10-09T14:46:43.400Z,19.74
2022-10-09T14:49:11.552Z,19.79
2022-10-09T14:51:41.048Z,19.95
2022-10-09T14:54:10.246Z,19.89
2022-10-09T14:56:38.260Z,20.01
2022-10-09T14:59:07.746Z,20.05
2022-10-09T15:01:36.514Z,20.13
2022-10-09T15:04:05.442Z,20.09
2022-10-09T15:06:34.084Z,20.05
2022-10-09T15:09:05.504Z,19.81
2022-10-09T15:11:35.471Z,19.88
2022-10-09T15:14:04.085Z,19.94
2022-10-09T15:16:33.490Z,19.94
2022-10-09T15:19:01.697Z,19.84
2022-10-09T15:21:31.601Z,19.71
2022-10-09T15:24:01.269Z,19.62
2022-10-09T15:26:32.877Z,19.25
2022-10-09T15:29:02.531Z,18.96
2022-10-09T15:31:31.941Z,19.04
2022-10-09T15:34:02.293Z,19.03
2022-10-09T15:36:30.813Z,18.91
2022-10-09T15:39:02.934Z,18.91
2022-10-09T15:41:32.920Z,19.03
2022-10-09T15:44:03.007Z,19.03
2022-10-09T15:46:32.127Z,19.03
2022-10-09T15:49:01.661Z,18.90
2022-10-09T15:51:31.575Z,18.83
2022-10-09T15:54:01.263Z,18.71
2022-10-09T15:56:30.154Z,18.58
2022-10-09T15:58:59.136Z,18.58
2022-10-09T16:01:27.602Z,18.55
2022-10-09T16:03:55.684Z,18.59
2022-10-09T16:06:25.047Z,18.54
2022-10-09T16:08:57.257Z,18.57
2022-10-09T16:11:26.732Z,18.56
2022-10-09T16:13:57.295Z,18.41
2022-10-09T16:16:27.516Z,18.45
2022-10-09T16:18:56.390Z,18.40
2022-10-09T16:21:28.053Z,18.29
2022-10-09T16:23:59.144Z,18.36
2022-10-09T16:26:30.186Z,18.35
2022-10-09T16:28:58.417Z,18.32
2022-10-09T16:31:29.001Z,18.20
2022-10-09T16:33:57.161Z,18.15
2022-10-09T16:36:26.718Z,18.15
2022-10-09T16:38:55.250Z,18.21
2022-10-09T16:41:24.073Z,18.23
2022-10-09T16:43:55.169Z,18.22
2022-10-09T16:46:28.699Z,18.17
2022-10-09T16:48:57.332Z,18.33
2022-10-09T16:51:28.808Z,18.16
2022-10-09T16:53:59.535Z,18.04
2022-10-09T16:56:33.177Z,18.07
2022-10-09T16:59:03.374Z,18.10
2022-10-09T17:01:32.217Z,18.06
2022-10-09T17:04:01.481Z,18.07
2022-10-09T17:06:31.417Z,18.04
2022-10-09T17:09:00.259Z,18.05
2022-10-09T17:11:32.506Z,17.99
2022-10-09T17:14:00.637Z,17.95
2022-10-09T17:16:31.167Z,17.94
2022-10-09T17:18:59.696Z,17.96
2022-10-09T17:21:32.854Z,17.88
2022-10-09T17:24:06.143Z,17.85
2022-10-09T17:26:34.477Z,17.74
2022-10-09T17:29:03.376Z,17.76
2022-10-09T17:31:32.063Z,17.75
2022-10-09T17:34:01.919Z,17.72
2022-10-09T17:36:32.838Z,17.69
2022-10-09T17:39:00.726Z,17.72
2022-10-09T17:41:30.659Z,17.64
2022-10-09T17:43:59.339Z,17.58
2022-10-09T17:46:29.141Z,17.59
2022-10-09T17:48:58.339Z,17.59
2022-10-09T17:51:28.428Z,17.46
2022-10-09T17:54:01.028Z,17.52
2022-10-09T17:56:31.481Z,17.51
2022-10-09T17:59:00.163Z,17.53
2022-10-09T18:01:28.614Z,17.54
2022-10-09T18:03:57.335Z,17.51
2022-10-09T18:06:25.520Z,17.46
2022-10-09T18:08:55.606Z,17.43
2022-10-09T18:11:25.551Z,17.33
2022-10-09T18:13:55.445Z,17.39
2022-10-09T18:16:35.403Z,17.31
2022-10-09T18:19:06.033Z,17.32
2022-10-09T18:21:35.198Z,17.29
2022-10-09T18:24:03.106Z,17.27
2022-10-09T18:26:31.036Z,17.27
2022-10-09T18:29:01.686Z,17.27
2022-10-09T18:31:30.178Z,17.20
2022-10-09T18:33:59.677Z,17.25
2022-10-09T18:36:31.888Z,17.24
2022-10-09T18:39:02.268Z,17.22
2022-10-09T18:41:30.511Z,17.17
2022-10-09T18:44:01.387Z,17.23
2022-10-09T18:46:35.181Z,17.20
2022-10-09T18:49:03.353Z,17.16
2022-10-09T18:51:32.196Z,17.12
2022-10-09T18:54:03.675Z,17.10
2022-10-09T18:56:33.259Z,17.10
2022-10-09T18:59:06.603Z,17.04
2022-10-09T19:01:35.622Z,17.07
2022-10-09T19:04:03.521Z,17.02
2022-10-09T19:06:31.629Z,16.97
2022-10-09T19:09:00.823Z,16.96
2022-10-09T19:11:29.925Z,16.91
2022-10-09T19:13:59.662Z,16.94
2022-10-09T19:16:30.085Z,16.90
2022-10-09T19:18:57.928Z,16.87
2022-10-09T19:21:26.188Z,16.85
2022-10-09T19:23:55.493Z,16.84
2022-10-09T19:26:24.144Z,16.80
2022-10-09T19:28:52.069Z,16.78
2022-10-09T19:31:20.065Z,16.77
2022-10-09T19:33:49.278Z,16.61
2022-10-09T19:36:17.097Z,16.70
2022-10-09T19:38:45.417Z,16.69
2022-10-09T19:41:16.010Z,16.66
2022-10-09T19:43:44.176Z,16.63
2022-10-09T19:46:17.195Z,16.65
2022-10-09T19:48:46.033Z,16.67
2022-10-09T19:51:18.429Z,16.62
2022-10-09T19:53:46.870Z,16.57
2022-10-09T19:56:17.233Z,16.56
2022-10-09T19:58:46.559Z,16.56
2022-10-09T20:01:16.692Z,16.55
2022-10-09T20:03:45.279Z,16.53
2022-10-09T20:06:13.574Z,16.53
2022-10-09T20:08:45.181Z,16.51
2022-10-09T20:11:13.936Z,16.54
2022-10-09T20:13:43.564Z,16.53
2022-10-09T20:16:14.057Z,16.53
2022-10-09T20:18:43.290Z,16.51
2022-10-09T20:21:12.354Z,16.47
2022-10-09T20:23:40.490Z,16.47
2022-10-09T20:26:13.377Z,16.45
2022-10-09T20:28:41.653Z,16.45
2022-10-09T20:31:14.601Z,16.43
2022-10-09T20:33:43.109Z,16.42
2022-10-09T20:36:19.695Z,16.42
2022-10-09T20:38:48.679Z,16.41
2022-10-09T20:41:18.815Z,16.41
2022-10-09T20:43:51.477Z,16.38
2022-10-09T20:46:21.140Z,16.34
2022-10-09T20:48:49.142Z,16.32
2022-10-09T20:51:17.320Z,16.32
2022-10-09T20:53:45.799Z,16.22
2022-10-09T20:56:15.431Z,16.09
2022-10-09T20:58:44.656Z,16.10
2022-10-09T21:01:14.219Z,16.05
2022-10-09T21:03:42.819Z,15.94
2022-10-09T21:06:12.952Z,15.81
2022-10-09T21:08:40.974Z,15.83
2022-10-09T21:11:11.839Z,15.83
2022-10-09T21:13:41.814Z,15.80
2022-10-09T21:16:13.044Z,15.66
2022-10-09T21:18:41.748Z,15.67
2022-10-09T21:21:11.711Z,15.71
2022-10-09T21:23:40.157Z,15.65
2022-10-09T21:26:12.105Z,15.68
2022-10-09T21:28:40.635Z,15.63
2022-10-09T21:31:11.325Z,15.57
2022-10-09T21:33:39.719Z,15.39
2022-10-09T21:36:11.572Z,15.44
2022-10-09T21:38:39.596Z,15.30
2022-10-09T21:41:07.778Z,15.29
2022-10-09T21:43:36.074Z,15.28
2022-10-09T21:46:04.174Z,15.09
2022-10-09T21:48:33.579Z,15.02
2022-10-09T21:51:01.652Z,15.04
2022-10-09T21:53:30.708Z,14.80
2022-10-09T21:55:58.830Z,14.78
2022-10-09T21:58:26.803Z,14.81
2022-10-09T22:00:58.395Z,14.81
2022-10-09T22:03:27.297Z,14.86
2022-10-09T22:05:57.050Z,14.90
2022-10-09T22:08:25.897Z,14.94
2022-10-09T22:10:53.843Z,14.97
2022-10-09T22:13:23.218Z,14.93
2022-10-09T22:15:51.565Z,15.09
2022-10-09T22:18:20.394Z,15.11
2022-10-09T22:20:51.036Z,15.14
2022-10-09T22:23:22.414Z,15.12
2022-10-09T22:25:57.717Z,15.20
2022-10-09T22:28:26.176Z,15.19
2022-10-09T22:31:06.046Z,15.31
2022-10-09T22:33:36.481Z,15.26
2022-10-09T22:36:07.723Z,15.21
2022-10-09T22:38:38.276Z,15.20
2022-10-09T22:41:09.080Z,15.11
2022-10-09T22:43:38.118Z,15.05
2022-10-09T22:46:08.982Z,14.89
2022-10-09T22:48:37.469Z,14.88
2022-10-09T22:51:07.666Z,14.94
2022-10-09T22:53:38.037Z,14.94
2022-10-09T22:56:07.806Z,14.88
2022-10-09T22:58:35.805Z,14.85
2022-10-09T23:01:06.749Z,14.88
2022-10-09T23:03:34.626Z,14.88
2022-10-09T23:06:07.570Z,14.81
2022-10-09T23:08:37.982Z,14.69
2022-10-09T23:11:06.261Z,14.63
2022-10-09T23:13:34.457Z,14.55
2022-10-09T23:16:03.239Z,14.63
2022-10-09T23:18:31.345Z,14.61
2022-10-09T23:20:59.499Z,14.52
2022-10-09T23:23:29.050Z,14.50
2022-10-09T23:25:58.525Z,14.36
2022-10-09T23:28:27.690Z,14.37
2022-10-09T23:31:01.939Z,14.34
2022-10-09T23:33:29.876Z,14.20
2022-10-09T23:35:57.759Z,14.26
2022-10-09T23:38:26.047Z,14.33
2022-10-09T23:40:59.593Z,14.33
2022-10-09T23:43:28.802Z,14.27
2022-10-09T23:45:58.656Z,14.16
2022-10-09T23:48:27.511Z,14.24
2022-10-09T23:50:56.290Z,14.33
2022-10-09T23:53:26.412Z,14.40
2022-10-09T23:55:54.984Z,14.39
2022-10-09T23:58:24.542Z,14.26
